NOAA Web Site Link Tides and Currents Home Page Transparent placeholder image

PORTS® Data Listing: 8573927 Chesapeake City, MD

CO-OPS RAW PORTS DATA

************************      PRELIMINARY DATA      ************************** 

     THIS RAW DATA HAS NOT BEEN SUBJECT TO THE NATIONAL OCEAN SERVICE'S        
     QUALITY CONTROL OR QUALITY ASSURANCE PROCEDURES AND DOES NOT MEET         
     THE CRITERIA AND STANDARDS OF OFFICIAL NATIONAL OCEAN SERVICE             
     DATA.  IT IS RELEASED FOR LIMITED PUBLIC USE AS PRELIMINARY DATA TO       
     BE USED ONLY WITH APPROPRIATE CAUTION.                                    

************************      PRELIMINARY DATA      ************************** 


       CD   -   Calendar date
       T    -   Time
       TZ   -   Timezone
       PW   -   Predicted water level (feet above MLLW)
       OW   -   Observed water level (feet above MLLW)
       WS   -   Wind speed (knots)
       WD   -   Wind direction (degrees true)
       WG   -   Wind gust (knots)
       AT   -   Air temperature (degrees farenheit)
       WT   -   Water temperature (degrees farenheit)
       AP   -   Air pressure (millibars)
       SA   -   Salinty (PSU - Practical Salinity Units)
       SG   -   Specific gravity
       RH   -   Relative humidity
       AG   -   Air gap (feet)
       VI   -   Visibility (nautical miles)

       ** NOTE **
       A variable that has its data fields filled with "9"s, indicates that
       data was not collected for that sample period.
       **********


STATION NAME: Chesapeake City (8573927)
****************************************************************************************************
    CD       T    TZ    PW     OW    WS   WD   WG    AT    WT    AP    SA    SG     RH    AG   VI
****************************************************************************************************
2018/06/23 12:36 EDT    0.70   1.55    3   93    6  68.9  75.9 1010.7  1.6  0.999 -99.9 -99.99 -9.99
2018/06/23 12:42 EDT    0.65   1.50    4   90    7  68.9  75.9 1010.7  1.5  0.999 -99.9 -99.99 -9.99
2018/06/23 12:48 EDT    0.60   1.45    4   75    6  68.9  75.9 1010.6  1.5  0.999 -99.9 -99.99 -9.99
2018/06/23 12:54 EDT    0.56   1.41    5   68    7  69.3  75.9 1010.5  1.5  0.999 -99.9 -99.99 -9.99
2018/06/23 13:00 EDT    0.51   1.38    3   49    6  69.6  75.7 1010.6  1.5  0.999 -99.9 -99.99 -9.99
2018/06/23 13:06 EDT    0.47   1.33    4   70    6  69.6  75.7 1010.5  1.5  0.999 -99.9 -99.99 -9.99
2018/06/23 13:12 EDT    0.43   1.32    4   73    6  69.4  75.9 1010.5  1.5  0.999 -99.9 -99.99 -9.99
2018/06/23 13:18 EDT    0.40   1.26    2   66    5  69.6  75.9 1010.4  1.5  0.999 -99.9 -99.99 -9.99
2018/06/23 13:24 EDT    0.36   1.19    5   84    7  69.8  75.9 1010.3  1.5  0.999 -99.9 -99.99 -9.99
2018/06/23 13:30 EDT    0.33   1.18    5   84    7  69.8  75.9 1010.3  1.5  0.999 -99.9 -99.99 -9.99
2018/06/23 13:36 EDT    0.30   1.17    5   72    6  69.8  75.6 1010.4  1.5  0.999 -99.9 -99.99 -9.99
2018/06/23 13:42 EDT    0.27   1.15    5   73    6  69.8  75.6 1010.3  1.5  0.999 -99.9 -99.99 -9.99
2018/06/23 13:48 EDT    0.24   1.15    4   77    6  70.2  75.9 1010.2  1.6  0.999 -99.9 -99.99 -9.99
2018/06/23 13:54 EDT    0.22   1.08    5   74    6  70.0  75.7 1010.1  1.5  0.999 -99.9 -99.99 -9.99
2018/06/23 14:00 EDT    0.20   1.11    4   82    6  70.5  76.3 1010.0  1.7  0.999 -99.9 -99.99 -9.99
2018/06/23 14:06 EDT    0.18   1.11    4   85    6  70.5  76.3 1009.9  1.7  0.999 -99.9 -99.99 -9.99
2018/06/23 14:12 EDT    0.16   1.08    4   70    6  70.7  76.5 1009.9  1.8  0.999 -99.9 -99.99 -9.99
2018/06/23 14:18 EDT    0.15   1.09    4   77    7  70.7  76.6 1009.9  1.8  0.999 -99.9 -99.99 -9.99
2018/06/23 14:24 EDT    0.14   1.08    4   71    7  70.5  76.3 1009.9  1.7  0.999 -99.9 -99.99 -9.99
2018/06/23 14:30 EDT    0.13   1.09    4   76    7  70.9  76.5 1009.8  1.7  0.999 -99.9 -99.99 -9.99
2018/06/23 14:36 EDT    0.13   1.08    5   81    5  70.9  76.6 1009.7  1.7  0.999 -99.9 -99.99 -9.99
2018/06/23 14:42 EDT    0.13   1.09    4   76    6  70.7  76.6 1009.7  1.7  0.999 -99.9 -99.99 -9.99
2018/06/23 14:48 EDT    0.13   1.11    2   85    5  70.9  76.6 1009.8  1.7  0.999 -99.9 -99.99 -9.99
2018/06/23 14:54 EDT    0.14   1.09    1   56    2  71.2  76.6 1009.8  1.7  0.999 -99.9 -99.99 -9.99
2018/06/23 15:00 EDT    0.15   1.12    2   96    4  71.1  76.5 1009.8  1.7  0.999 -99.9 -99.99 -9.99
2018/06/23 15:06 EDT    0.17   1.14    4   77    4  71.2  76.3 1009.8  1.6  0.999 -99.9 -99.99 -9.99
2018/06/23 15:12 EDT    0.19   1.16    4   84    4  71.2  76.6 1009.7  1.7  0.999 -99.9 -99.99 -9.99
2018/06/23 15:18 EDT    0.22   1.17    3   86    4  71.4  76.5 1009.6  1.7  0.999 -99.9 -99.99 -9.99
2018/06/23 15:24 EDT    0.25   1.20    2   91    4  71.6  76.6 1009.5  1.7  0.999 -99.9 -99.99 -9.99
2018/06/23 15:30 EDT    0.29   1.21    5   74    6  71.6  76.5 1009.3  1.7  0.999 -99.9 -99.99 -9.99
2018/06/23 15:36 EDT    0.33   1.24    5   73    7  71.6  76.6 1009.2  1.6  0.999 -99.9 -99.99 -9.99
2018/06/23 15:42 EDT    0.38   1.29    5   76    7  72.0  76.6 1009.1  1.6  0.999 -99.9 -99.99 -9.99
2018/06/23 15:48 EDT    0.43   1.31    4   71    7  71.8  76.6 1009.1  1.6  0.999 -99.9 -99.99 -9.99
2018/06/23 15:54 EDT    0.49   1.37    4   65    6  72.1  76.5 1009.1  1.6  0.999 -99.9 -99.99 -9.99
2018/06/23 16:00 EDT    0.55   1.43    5   58    6  72.3  76.5 1009.0  1.6  0.999 -99.9 -99.99 -9.99
2018/06/23 16:06 EDT    0.62   1.51    4   92    7  72.9  76.6 1009.0  1.5  0.999 -99.9 -99.99 -9.99
2018/06/23 16:12 EDT    0.69   1.56    4   85    5  73.0  76.6 1009.0  1.5  0.999 -99.9 -99.99 -9.99
2018/06/23 16:18 EDT    0.76   3.23    3   76    5  73.0  76.6 1009.1  1.5  0.999 -99.9 -99.99 -9.99
2018/06/23 16:24 EDT    0.84   3.22    0   59    2  73.8  76.8 1009.2  1.4  0.999 -99.9 -99.99 -9.99
2018/06/23 16:30 EDT    0.92   1.82    1   51    2  74.3  76.6 1009.2  1.4  0.999 -99.9 -99.99 -9.99
2018/06/23 16:36 EDT    1.00   1.91    2  109    4  74.1  76.6 1009.3  1.4  0.999 -99.9 -99.99 -9.99
2018/06/23 16:42 EDT    1.09   2.03    1   89    3  74.1  76.6 1009.4  1.4  0.999 -99.9 -99.99 -9.99
2018/06/23 16:48 EDT    1.17   2.15    1   79    2  74.1  76.6 1009.4  1.3  0.999 -99.9 -99.99 -9.99
2018/06/23 16:54 EDT    1.26   2.19    1   27    2  74.1  76.6 1009.4  1.3  0.999 -99.9 -99.99 -9.99
2018/06/23 17:00 EDT    1.35   2.33    0   74    1  74.3  76.6 1009.4  1.3  0.999 -99.9 -99.99 -9.99
2018/06/23 17:06 EDT    1.44   2.40    1   83    1  74.1  76.6 1009.3  1.2  0.999 -99.9 -99.99 -9.99
2018/06/23 17:12 EDT    1.53   2.49    2   97    3  74.3  76.6 1009.3  1.2  0.999 -99.9 -99.99 -9.99
2018/06/23 17:18 EDT    1.62   2.62    3   83    4  74.1  76.6 1009.1  1.2  0.999 -99.9 -99.99 -9.99
2018/06/23 17:24 EDT    1.71   2.67    2   94    4  74.3  76.6 1008.9  1.2  0.999 -99.9 -99.99 -9.99
2018/06/23 17:30 EDT    1.80   2.79    3   91    5  74.3  76.6 1008.8  1.2  0.999 -99.9 -99.99 -9.99
2018/06/23 17:36 EDT    1.88   2.84    3   90    4  74.3  76.6 1008.8  1.2  0.999 -99.9 -99.99 -9.99
2018/06/23 17:42 EDT    1.97   2.95    1   99    3  74.7  76.6 1008.8  1.2  0.999 -99.9 -99.99 -9.99
2018/06/23 17:48 EDT    2.05   3.02    2   82    4  74.5  76.8 1008.8  1.2  0.999 -99.9 -99.99 -9.99
2018/06/23 17:54 EDT    2.13   3.09    3    3    3  75.0  76.8 1008.7  1.2  0.999 -99.9 -99.99 -9.99
2018/06/23 18:00 EDT    2.21   3.17    3  329    4  75.2  76.8 1008.7  1.2  0.999 -99.9 -99.99 -9.99
2018/06/23 18:06 EDT    2.29   3.26    3   17    6  75.2  76.8 1008.6  1.2  0.999 -99.9 -99.99 -9.99
2018/06/23 18:12 EDT    2.36   3.33    1  355    3  75.6  76.8 1008.6  1.2  0.999 -99.9 -99.99 -9.99
2018/06/23 18:18 EDT    2.44   3.37    2   20    4  75.6  76.8 1008.5  1.2  0.999 -99.9 -99.99 -9.99
2018/06/23 18:24 EDT    2.51   3.42    2  359    4  75.6  76.8 1008.5  1.2  0.999 -99.9 -99.99 -9.99
2018/06/23 18:30 EDT    2.57   3.48    0  300    3  76.6  76.8 1008.6  1.2  0.999 -99.9 -99.99 -9.99
2018/06/23 18:36 EDT    2.64   3.55    0  112    1  77.7  76.8 1008.7  1.2  0.999 -99.9 -99.99 -9.99
2018/06/23 18:42 EDT    2.70   3.61    1   74    1  76.8  76.8 1008.7  1.1  0.999 -99.9 -99.99 -9.99
2018/06/23 18:48 EDT    2.76   3.64    2   73    2  76.1  77.0 1008.8  1.1  0.999 -99.9 -99.99 -9.99
2018/06/23 18:54 EDT    2.82   3.68    2   72    3  75.7  77.0 1008.8  1.1  0.999 -99.9 -99.99 -9.99
2018/06/23 19:00 EDT    2.87   3.74    2   46    4  75.7  77.0 1008.9  1.1  0.999 -99.9 -99.99 -9.99
2018/06/23 19:06 EDT    2.92   3.79    2   62    4  75.7  77.0 1009.0  1.1  0.999 -99.9 -99.99 -9.99
2018/06/23 19:12 EDT    2.97   3.82    2   50    3  75.7  77.0 1008.9  1.1  0.999 -99.9 -99.99 -9.99
2018/06/23 19:18 EDT    3.01   3.87    4   68    6  75.4  77.0 1008.9  1.1  0.999 -99.9 -99.99 -9.99
2018/06/23 19:24 EDT    3.05   3.89    4   79    5  75.2  77.0 1009.0  1.1  0.999 -99.9 -99.99 -9.99
2018/06/23 19:30 EDT    3.09   3.90    2  105    4  75.0  77.0 1009.1  1.1  0.999 -99.9 -99.99 -9.99
2018/06/23 19:36 EDT    3.12   3.92    2   84    3  75.2  77.0 1009.1  1.1  0.999 -99.9 -99.99 -9.99
2018/06/23 19:42 EDT    3.15   3.93    4   74    4  75.0  77.0 1009.0  1.1  0.999 -99.9 -99.99 -9.99
2018/06/23 19:48 EDT    3.18   3.94    3   89    4  75.0  77.0 1009.1  1.1  0.999 -99.9 -99.99 -9.99
2018/06/23 19:54 EDT    3.20   3.93    5   88    6  75.0  77.0 1009.1  1.1  0.999 -99.9 -99.99 -9.99
2018/06/23 20:00 EDT    3.22   3.92    4   96    8  74.5  76.8 1009.1  1.1  0.999 -99.9 -99.99 -9.99
2018/06/23 20:06 EDT    3.23   3.91    4   93    6  74.1  76.8 1009.2  1.1  0.999 -99.9 -99.99 -9.99
2018/06/23 20:12 EDT    3.24   3.90    4  100    5  73.9  76.6 1009.2  1.1  0.999 -99.9 -99.99 -9.99
2018/06/23 20:18 EDT    3.24   3.88    3   91    4  73.8  76.6 1009.3  1.1  0.999 -99.9 -99.99 -9.99
2018/06/23 20:24 EDT    3.24   3.86    4   87    5  73.8  76.8 1009.2  1.1  0.999 -99.9 -99.99 -9.99
2018/06/23 20:30 EDT    3.24   3.85    3   94    5  73.8  76.8 1009.2  1.1  0.999 -99.9 -99.99 -9.99
2018/06/23 20:36 EDT    3.23   3.84    2  113    4  73.6  76.8 1009.5  1.1  0.999 -99.9 -99.99 -9.99
2018/06/23 20:42 EDT    3.22   3.83    2  108    3  73.4  76.8 1009.6  1.1  0.999 -99.9 -99.99 -9.99
2018/06/23 20:48 EDT    3.20   3.81    2   93    3  73.4  76.8 1009.5  1.1  0.999 -99.9 -99.99 -9.99
2018/06/23 20:54 EDT    3.18   3.80    2   24    4  73.2  76.6 1009.6  1.2  0.999 -99.9 -99.99 -9.99
2018/06/23 21:00 EDT    3.15   3.77    2   89    3  73.2  76.6 1009.5  1.2  0.999 -99.9 -99.99 -9.99
2018/06/23 21:06 EDT    3.12   3.75    2  122    3  72.9  76.6 1009.5  1.2  0.999 -99.9 -99.99 -9.99
2018/06/23 21:12 EDT    3.09   3.69    2  106    3  72.5  76.6 1009.6  1.2  0.999 -99.9 -99.99 -9.99
2018/06/23 21:18 EDT    3.05   3.66    1   92    3  72.7  76.6 1009.6  1.2  0.999 -99.9 -99.99 -9.99
2018/06/23 21:24 EDT    3.01   3.64    2   80    3  72.5  76.6 1009.6  1.2  0.999 -99.9 -99.99 -9.99
2018/06/23 21:30 EDT    2.96   3.59    1  119    3  72.1  76.6 1009.7  1.2  0.999 -99.9 -99.99 -9.99
2018/06/23 21:36 EDT    2.92   3.53    1  124    2  72.0  76.6 1009.6  1.2  0.999 -99.9 -99.99 -9.99
2018/06/23 21:42 EDT    2.86   3.49    1  122    2  71.8  76.6 1009.6  1.2  0.999 -99.9 -99.99 -9.99
2018/06/23 21:48 EDT    2.81   3.45    2  127    2  71.6  76.6 1009.7  1.2  0.999 -99.9 -99.99 -9.99
2018/06/23 21:54 EDT    2.75   3.38    2  131    3  71.4  76.6 1009.7  1.2  0.999 -99.9 -99.99 -9.99
2018/06/23 22:00 EDT    2.70   3.34    1  125    2  71.2  76.6 1009.6  1.2  0.999 -99.9 -99.99 -9.99
2018/06/23 22:06 EDT    2.63   3.28    1  119    2  71.2  76.6 1009.7  1.2  0.999 -99.9 -99.99 -9.99
2018/06/23 22:12 EDT    2.57   3.24    1  118    2  71.4  76.6 1009.7  1.2  0.999 -99.9 -99.99 -9.99
2018/06/23 22:18 EDT    2.51   3.17    0   67    1  71.6  76.6 1009.7  1.2  0.999 -99.9 -99.99 -9.99
2018/06/23 22:24 EDT    2.44   3.09    1   47    2  71.2  76.6 1009.7  1.2  0.999 -99.9 -99.99 -9.99
2018/06/23 22:30 EDT    2.37   3.02    1   56    2  71.1  76.6 1009.8  1.2  0.999 -99.9 -99.99 -9.99
2018/06/23 22:36 EDT    2.31   2.96    2   90    3  71.1  76.6 1009.9  1.2  0.999 -99.9 -99.99 -9.99
2018/06/23 22:42 EDT    2.24   2.89    2   88    2  71.1  76.6 1009.9  1.2  0.999 -99.9 -99.99 -9.99
2018/06/23 22:48 EDT    2.17   2.83    1  124    2  71.1  76.5 1010.0  1.2  0.999 -99.9 -99.99 -9.99
2018/06/23 22:54 EDT    2.10   2.76    0  105    1  71.1  76.5 1010.1  1.2  0.999 -99.9 -99.99 -9.99
2018/06/23 23:00 EDT    2.02   2.70    0  146    0  71.1  76.5 1010.0  1.2  0.999 -99.9 -99.99 -9.99
2018/06/23 23:06 EDT    1.95   2.63    0  135    1  71.1  76.5 1010.0  1.2  0.999 -99.9 -99.99 -9.99
2018/06/23 23:12 EDT    1.88   2.53    0  143    1  71.2  76.5 1010.0  1.2  0.999 -99.9 -99.99 -9.99
2018/06/23 23:18 EDT    1.81   2.48    1  152    1  71.2  76.5 1010.0  1.2  0.999 -99.9 -99.99 -9.99
2018/06/23 23:24 EDT    1.74   2.42    1  162    2  71.2  76.5 1009.9  1.2  0.999 -99.9 -99.99 -9.99
2018/06/23 23:30 EDT    1.67   2.35    1  107    1  71.2  76.3 1010.0  1.3  0.999 -99.9 -99.99 -9.99
2018/06/23 23:36 EDT    1.60   2.29    1  167    1  71.2  76.3 1010.0  1.3  0.999 -99.9 -99.99 -9.99
2018/06/23 23:42 EDT    1.54   2.22    0  186    2  71.2  76.3 1010.0  1.3  0.999 -99.9 -99.99 -9.99
2018/06/23 23:48 EDT    1.47   2.15    0  166    2  71.2  76.3 1010.0  1.3  0.999 -99.9 -99.99 -9.99
2018/06/23 23:54 EDT    1.40   2.08    2  251    2  71.1  76.3 1010.1  1.3  0.999 -99.9 -99.99 -9.99
2018/06/24 00:00 EDT    1.34   2.01    0  262    2  71.4  76.3 1010.1  1.3  0.999 -99.9 -99.99 -9.99
2018/06/24 00:06 EDT    1.28   1.95    1  266    2  71.6  76.3 1010.2  1.3  0.999 -99.9 -99.99 -9.99
2018/06/24 00:12 EDT    1.22   1.89    1  239    3  71.8  76.3 1010.2  1.3  0.999 -99.9 -99.99 -9.99
2018/06/24 00:18 EDT    1.16   1.83    2  239    3  71.8  76.3 1010.1  1.3  0.999 -99.9 -99.99 -9.99
2018/06/24 00:24 EDT    1.11   1.78    1  258    3  71.6  76.3 1010.1  1.3  0.999 -99.9 -99.99 -9.99
2018/06/24 00:30 EDT    1.05   1.73    1  258    2  71.6  76.3 1010.1  1.3  0.999 -99.9 -99.99 -9.99
2018/06/24 00:36 EDT    1.00   1.68    1  253    2  71.8  76.1 1010.0  1.3  0.999 -99.9 -99.99 -9.99
2018/06/24 00:42 EDT    0.95   1.62    0  221    2  71.8  76.3 1009.9  1.4  0.999 -99.9 -99.99 -9.99
2018/06/24 00:48 EDT    0.91   1.58    1  150    1  72.0  76.3 1009.8  1.5  0.999 -99.9 -99.99 -9.99
2018/06/24 00:54 EDT    0.87   1.54    2  196    2  72.0  76.3 1009.7  1.5  0.999 -99.9 -99.99 -9.99
2018/06/24 01:00 EDT    0.82   1.50    2  177    3  72.0  76.3 1009.7  1.5  0.999 -99.9 -99.99 -9.99
2018/06/24 01:06 EDT    0.78   1.46    3  203    3  72.0  76.5 1009.6  1.5  0.999 -99.9 -99.99 -9.99
2018/06/24 01:12 EDT    0.75   1.43    1  218    3  72.0  76.3 1009.7  1.5  0.999 -99.9 -99.99 -9.99
2018/06/24 01:18 EDT    0.71   1.39    2  218    3  72.0  76.3 1009.7  1.6  0.999 -99.9 -99.99 -9.99
2018/06/24 01:24 EDT    0.68   1.36    1  213    3  72.1  76.3 1009.7  1.6  0.999 -99.9 -99.99 -9.99
2018/06/24 01:30 EDT    0.65   1.32    3  191    4  72.0  76.5 1009.7  1.6  0.999 -99.9 -99.99 -9.99
2018/06/24 01:36 EDT    0.62   1.30    4  238    5  72.0  76.5 1009.8  1.6  0.999 -99.9 -99.99 -9.99
2018/06/24 01:42 EDT    0.60   1.28    3  219    5  72.0  76.5 1009.8  1.6  0.999 -99.9 -99.99 -9.99
2018/06/24 01:48 EDT    0.57   1.26    3  228    5  72.0  76.5 1009.7  1.7  0.999 -99.9 -99.99 -9.99
2018/06/24 01:54 EDT    0.55   1.24    2  239    4  72.1  76.5 1009.7  1.7  0.999 -99.9 -99.99 -9.99
2018/06/24 02:00 EDT    0.53   1.24    4  222    5  72.0  76.5 1009.8  1.7  0.999 -99.9 -99.99 -9.99
2018/06/24 02:06 EDT    0.51   1.23    3  248    5  72.0  76.5 1009.8  1.7  0.999 -99.9 -99.99 -9.99
2018/06/24 02:12 EDT    0.49   1.23    4  239    6  72.0  76.5 1009.8  1.7  0.999 -99.9 -99.99 -9.99
2018/06/24 02:18 EDT    0.48   1.22    4  253    6  72.0  76.5 1009.8  1.8  0.999 -99.9 -99.99 -9.99
2018/06/24 02:24 EDT    0.46   1.22    2  262    6  72.1  76.5 1009.7  1.7  0.999 -99.9 -99.99 -9.99
2018/06/24 02:30 EDT    0.45   1.23    2  293    4  72.1  76.6 1009.7  1.9  0.999 -99.9 -99.99 -9.99
2018/06/24 02:36 EDT    0.44   1.25    2  232    3  72.1  76.6 1009.7  2.0  0.999 -99.9 -99.99 -9.99
2018/06/24 02:42 EDT    0.44   1.27    2  250    5  72.0  76.6 1009.6  2.0  0.999 -99.9 -99.99 -9.99
2018/06/24 02:48 EDT    0.43   1.29    1  242    5  72.1  76.8 1009.6  2.0  0.999 -99.9 -99.99 -9.99
2018/06/24 02:54 EDT    0.43   1.32    2  217    3  72.0  76.6 1009.5  2.0  0.999 -99.9 -99.99 -9.99
2018/06/24 03:00 EDT    0.43   1.34    2  214    3  72.0  76.6 1009.5  2.0  0.999 -99.9 -99.99 -9.99
2018/06/24 03:06 EDT    0.44   1.36    3  239    4  71.8  76.6 1009.5  2.0  0.999 -99.9 -99.99 -9.99
2018/06/24 03:12 EDT    0.45   1.39    3  246    4  71.8  76.6 1009.5  2.0  0.999 -99.9 -99.99 -9.99
2018/06/24 03:18 EDT    0.46   1.41    1  193    3  71.6  76.8 1009.6  2.0  1.000 -99.9 -99.99 -9.99
2018/06/24 03:24 EDT    0.48   1.45    2  233    3  71.6  76.6 1009.7  2.0  1.000 -99.9 -99.99 -9.99
2018/06/24 03:30 EDT    0.50   1.48    2  232    2  71.4  76.8 1009.7  2.1  1.000 -99.9 -99.99 -9.99
2018/06/24 03:36 EDT    0.53   1.51    2  236    3  71.4  76.8 1009.8  2.1  1.000 -99.9 -99.99 -9.99
2018/06/24 03:42 EDT    0.56   1.54    2  216    3  71.2  76.8 1009.8  2.0  0.999 -99.9 -99.99 -9.99
2018/06/24 03:48 EDT    0.59   1.56    2  192    3  71.2  76.6 1009.9  2.0  0.999 -99.9 -99.99 -9.99
2018/06/24 03:54 EDT    0.63   1.59    2  222    4  71.1  76.6 1009.9  2.0  1.000 -99.9 -99.99 -9.99
2018/06/24 04:00 EDT    0.68   1.62    2  225    4  71.1  76.6 1009.9  2.0  1.000 -99.9 -99.99 -9.99
2018/06/24 04:06 EDT    0.72   1.68    2  245    4  71.1  76.6 1010.0  1.9  0.999 -99.9 -99.99 -9.99
2018/06/24 04:12 EDT    0.78   1.68    2  268    2  71.1  76.8 1010.0  2.0  0.999 -99.9 -99.99 -9.99
2018/06/24 04:18 EDT    0.83   1.72    2  272    3  71.1  76.8 1010.0  2.0  0.999 -99.9 -99.99 -9.99
2018/06/24 04:24 EDT    0.90   1.78    2  294    3  71.2  76.6 1010.0  2.0  0.999 -99.9 -99.99 -9.99
2018/06/24 04:30 EDT    0.96   1.83    2  289    3  71.2  76.6 1009.9  1.9  0.999 -99.9 -99.99 -9.99
2018/06/24 04:36 EDT    1.03   1.83    1  246    2  71.1  76.6 1009.9  1.9  0.999 -99.9 -99.99 -9.99
2018/06/24 04:42 EDT    1.11   1.89    2  229    2  70.9  76.6 1010.0  1.9  0.999 -99.9 -99.99 -9.99
2018/06/24 04:48 EDT    1.18   2.01    1  174    2  70.7  76.6 1009.9  1.9  0.999 -99.9 -99.99 -9.99
2018/06/24 04:54 EDT    1.26   2.08    1  141    1  70.5  76.6 1010.0  1.9  0.999 -99.9 -99.99 -9.99
2018/06/24 05:00 EDT    1.34   2.13    1  224    1  70.3  76.6 1010.0  1.9  0.999 -99.9 -99.99 -9.99
2018/06/24 05:06 EDT    1.42   2.23    1  249    1  70.5  76.6 1009.9  1.8  0.999 -99.9 -99.99 -9.99
2018/06/24 05:12 EDT    1.51   2.25    1  295    1  70.5  76.6 1010.0  1.8  0.999 -99.9 -99.99 -9.99
2018/06/24 05:18 EDT    1.59   2.40    1  257    1  70.2  76.6 1010.1  1.8  0.999 -99.9 -99.99 -9.99
2018/06/24 05:24 EDT    1.68   2.46    0  240    1  70.0  76.6 1010.1  1.7  0.999 -99.9 -99.99 -9.99
2018/06/24 05:30 EDT    1.77   2.54    2  183    2  69.8  76.5 1010.3  1.7  0.999 -99.9 -99.99 -9.99
2018/06/24 05:36 EDT    1.85   2.64    1  138    3  69.6  76.6 1010.3  1.7  0.999 -99.9 -99.99 -9.99
2018/06/24 05:42 EDT    1.94   2.71    0  107    2  69.4  76.6 1010.4  1.7  0.999 -99.9 -99.99 -9.99
2018/06/24 05:48 EDT    2.02   2.81    1  164    1  69.6  76.6 1010.3  1.6  0.999 -99.9 -99.99 -9.99
2018/06/24 05:54 EDT    2.11   2.91    1  171    1  69.4  76.5 1010.3  1.6  0.999 -99.9 -99.99 -9.99
2018/06/24 06:00 EDT    2.19   2.97    1  210    1  69.3  76.5 1010.2  1.6  0.999 -99.9 -99.99 -9.99
2018/06/24 06:06 EDT    2.27   3.05    1  192    2  69.4  76.5 1010.3  1.6  0.999 -99.9 -99.99 -9.99
2018/06/24 06:12 EDT    2.35   3.16    1  223    2  69.3  76.5 1010.3  1.5  0.999 -99.9 -99.99 -9.99
2018/06/24 06:18 EDT    2.43   3.22    1  219    2  69.4  76.5 1010.3  1.5  0.999 -99.9 -99.99 -9.99
2018/06/24 06:24 EDT    2.51   3.29    0  103    1  69.6  76.5 1010.3  1.5  0.999 -99.9 -99.99 -9.99
2018/06/24 06:30 EDT    2.58   3.36    0  111    1  69.6  76.5 1010.4  1.4  0.999 -99.9 -99.99 -9.99
2018/06/24 06:36 EDT    2.65 -99.99 -999 -999 -999 -99.9 -99.9 -999.9 -9.9 -9.999 -99.9 -99.99 -9.99
2018/06/24 06:42 EDT    2.72 -99.99 -999 -999 -999 -99.9 -99.9 -999.9 -9.9 -9.999 -99.9 -99.99 -9.99
2018/06/24 06:48 EDT    2.79 -99.99 -999 -999 -999 -99.9 -99.9 -999.9 -9.9 -9.999 -99.9 -99.99 -9.99
2018/06/24 06:54 EDT    2.85 -99.99 -999 -999 -999 -99.9 -99.9 -999.9 -9.9 -9.999 -99.9 -99.99 -9.99
2018/06/24 07:00 EDT    2.91 -99.99 -999 -999 -999 -99.9 -99.9 -999.9 -9.9 -9.999 -99.9 -99.99 -9.99
2018/06/24 07:06 EDT    2.97 -99.99 -999 -999 -999 -99.9 -99.9 -999.9 -9.9 -9.999 -99.9 -99.99 -9.99
2018/06/24 07:12 EDT    3.03 -99.99 -999 -999 -999 -99.9 -99.9 -999.9 -9.9 -9.999 -99.9 -99.99 -9.99
2018/06/24 07:18 EDT    3.08 -99.99 -999 -999 -999 -99.9 -99.9 -999.9 -9.9 -9.999 -99.9 -99.99 -9.99
2018/06/24 07:24 EDT    3.13 -99.99 -999 -999 -999 -99.9 -99.9 -999.9 -9.9 -9.999 -99.9 -99.99 -9.99
2018/06/24 07:30 EDT    3.18 -99.99 -999 -999 -999 -99.9 -99.9 -999.9 -9.9 -9.999 -99.9 -99.99 -9.99
2018/06/24 07:36 EDT    3.23 -99.99 -999 -999 -999 -99.9 -99.9 -999.9 -9.9 -9.999 -99.9 -99.99 -9.99
2018/06/24 07:42 EDT    3.27 -99.99 -999 -999 -999 -99.9 -99.9 -999.9 -9.9 -9.999 -99.9 -99.99 -9.99
2018/06/24 07:48 EDT    3.31 -99.99 -999 -999 -999 -99.9 -99.9 -999.9 -9.9 -9.999 -99.9 -99.99 -9.99
2018/06/24 07:54 EDT    3.34 -99.99 -999 -999 -999 -99.9 -99.9 -999.9 -9.9 -9.999 -99.9 -99.99 -9.99
2018/06/24 08:00 EDT    3.37 -99.99 -999 -999 -999 -99.9 -99.9 -999.9 -9.9 -9.999 -99.9 -99.99 -9.99
2018/06/24 08:06 EDT    3.40 -99.99 -999 -999 -999 -99.9 -99.9 -999.9 -9.9 -9.999 -99.9 -99.99 -9.99
2018/06/24 08:12 EDT    3.43 -99.99 -999 -999 -999 -99.9 -99.9 -999.9 -9.9 -9.999 -99.9 -99.99 -9.99
2018/06/24 08:18 EDT    3.45 -99.99 -999 -999 -999 -99.9 -99.9 -999.9 -9.9 -9.999 -99.9 -99.99 -9.99
2018/06/24 08:24 EDT    3.46 -99.99 -999 -999 -999 -99.9 -99.9 -999.9 -9.9 -9.999 -99.9 -99.99 -9.99
2018/06/24 08:30 EDT    3.47 -99.99 -999 -999 -999 -99.9 -99.9 -999.9 -9.9 -9.999 -99.9 -99.99 -9.99
2018/06/24 08:36 EDT    3.48 -99.99 -999 -999 -999 -99.9 -99.9 -999.9 -9.9 -9.999 -99.9 -99.99 -9.99
2018/06/24 08:42 EDT    3.48 -99.99 -999 -999 -999 -99.9 -99.9 -999.9 -9.9 -9.999 -99.9 -99.99 -9.99
2018/06/24 08:48 EDT    3.48 -99.99 -999 -999 -999 -99.9 -99.9 -999.9 -9.9 -9.999 -99.9 -99.99 -9.99
2018/06/24 08:54 EDT    3.48 -99.99 -999 -999 -999 -99.9 -99.9 -999.9 -9.9 -9.999 -99.9 -99.99 -9.99
2018/06/24 09:00 EDT    3.47 -99.99 -999 -999 -999 -99.9 -99.9 -999.9 -9.9 -9.999 -99.9 -99.99 -9.99
2018/06/24 09:06 EDT    3.45 -99.99 -999 -999 -999 -99.9 -99.9 -999.9 -9.9 -9.999 -99.9 -99.99 -9.99
2018/06/24 09:12 EDT    3.43 -99.99 -999 -999 -999 -99.9 -99.9 -999.9 -9.9 -9.999 -99.9 -99.99 -9.99
2018/06/24 09:18 EDT    3.41 -99.99 -999 -999 -999 -99.9 -99.9 -999.9 -9.9 -9.999 -99.9 -99.99 -9.99
2018/06/24 09:24 EDT    3.38 -99.99 -999 -999 -999 -99.9 -99.9 -999.9 -9.9 -9.999 -99.9 -99.99 -9.99
2018/06/24 09:30 EDT    3.35 -99.99 -999 -999 -999 -99.9 -99.9 -999.9 -9.9 -9.999 -99.9 -99.99 -9.99
2018/06/24 09:36 EDT    3.31 -99.99 -999 -999 -999 -99.9 -99.9 -999.9 -9.9 -9.999 -99.9 -99.99 -9.99
2018/06/24 09:42 EDT    3.27 -99.99 -999 -999 -999 -99.9 -99.9 -999.9 -9.9 -9.999 -99.9 -99.99 -9.99
2018/06/24 09:48 EDT    3.22 -99.99 -999 -999 -999 -99.9 -99.9 -999.9 -9.9 -9.999 -99.9 -99.99 -9.99
2018/06/24 09:54 EDT    3.18 -99.99 -999 -999 -999 -99.9 -99.9 -999.9 -9.9 -9.999 -99.9 -99.99 -9.99
2018/06/24 10:00 EDT    3.12 -99.99 -999 -999 -999 -99.9 -99.9 -999.9 -9.9 -9.999 -99.9 -99.99 -9.99
2018/06/24 10:06 EDT    3.07 -99.99 -999 -999 -999 -99.9 -99.9 -999.9 -9.9 -9.999 -99.9 -99.99 -9.99
2018/06/24 10:12 EDT    3.01 -99.99 -999 -999 -999 -99.9 -99.9 -999.9 -9.9 -9.999 -99.9 -99.99 -9.99
2018/06/24 10:18 EDT    2.95 -99.99 -999 -999 -999 -99.9 -99.9 -999.9 -9.9 -9.999 -99.9 -99.99 -9.99
2018/06/24 10:24 EDT    2.89 -99.99 -999 -999 -999 -99.9 -99.9 -999.9 -9.9 -9.999 -99.9 -99.99 -9.99
2018/06/24 10:30 EDT    2.82 -99.99 -999 -999 -999 -99.9 -99.9 -999.9 -9.9 -9.999 -99.9 -99.99 -9.99
2018/06/24 10:36 EDT    2.75 -99.99 -999 -999 -999 -99.9 -99.9 -999.9 -9.9 -9.999 -99.9 -99.99 -9.99
2018/06/24 10:42 EDT    2.68 -99.99 -999 -999 -999 -99.9 -99.9 -999.9 -9.9 -9.999 -99.9 -99.99 -9.99
2018/06/24 10:48 EDT    2.61 -99.99 -999 -999 -999 -99.9 -99.9 -999.9 -9.9 -9.999 -99.9 -99.99 -9.99
2018/06/24 10:54 EDT    2.53 -99.99 -999 -999 -999 -99.9 -99.9 -999.9 -9.9 -9.999 -99.9 -99.99 -9.99
2018/06/24 11:00 EDT    2.46 -99.99 -999 -999 -999 -99.9 -99.9 -999.9 -9.9 -9.999 -99.9 -99.99 -9.99
2018/06/24 11:06 EDT    2.38 -99.99 -999 -999 -999 -99.9 -99.9 -999.9 -9.9 -9.999 -99.9 -99.99 -9.99
2018/06/24 11:12 EDT    2.31 -99.99 -999 -999 -999 -99.9 -99.9 -999.9 -9.9 -9.999 -99.9 -99.99 -9.99
2018/06/24 11:18 EDT    2.23 -99.99 -999 -999 -999 -99.9 -99.9 -999.9 -9.9 -9.999 -99.9 -99.99 -9.99
2018/06/24 11:24 EDT    2.15 -99.99 -999 -999 -999 -99.9 -99.9 -999.9 -9.9 -9.999 -99.9 -99.99 -9.99
2018/06/24 11:30 EDT    2.07 -99.99 -999 -999 -999 -99.9 -99.9 -999.9 -9.9 -9.999 -99.9 -99.99 -9.99
2018/06/24 11:36 EDT    1.99 -99.99 -999 -999 -999 -99.9 -99.9 -999.9 -9.9 -9.999 -99.9 -99.99 -9.99
2018/06/24 11:42 EDT    1.91 -99.99 -999 -999 -999 -99.9 -99.9 -999.9 -9.9 -9.999 -99.9 -99.99 -9.99
2018/06/24 11:48 EDT    1.83 -99.99 -999 -999 -999 -99.9 -99.9 -999.9 -9.9 -9.999 -99.9 -99.99 -9.99
2018/06/24 11:54 EDT    1.75 -99.99 -999 -999 -999 -99.9 -99.9 -999.9 -9.9 -9.999 -99.9 -99.99 -9.99
2018/06/24 12:00 EDT    1.67 -99.99 -999 -999 -999 -99.9 -99.9 -999.9 -9.9 -9.999 -99.9 -99.99 -9.99
2018/06/24 12:06 EDT    1.59 -99.99 -999 -999 -999 -99.9 -99.9 -999.9 -9.9 -9.999 -99.9 -99.99 -9.99
2018/06/24 12:12 EDT    1.52 -99.99 -999 -999 -999 -99.9 -99.9 -999.9 -9.9 -9.999 -99.9 -99.99 -9.99
2018/06/24 12:18 EDT    1.44 -99.99 -999 -999 -999 -99.9 -99.9 -999.9 -9.9 -9.999 -99.9 -99.99 -9.99
2018/06/24 12:24 EDT    1.37 -99.99 -999 -999 -999 -99.9 -99.9 -999.9 -9.9 -9.999 -99.9 -99.99 -9.99
2018/06/24 12:30 EDT    1.30 -99.99 -999 -999 -999 -99.9 -99.9 -999.9 -9.9 -9.999 -99.9 -99.99 -9.99
2018/06/24 12:36 EDT    1.23 -99.99 -999 -999 -999 -99.9 -99.9 -999.9 -9.9 -9.999 -99.9 -99.99 -9.99

Revised: 10/15/2013
NOAA / National Ocean Service
Web site owner: Center for Operational Oceanographic Products and Services